sensor_id;sensor_type;location;lat;lon;timestamp;temperature;humidity
71177;DHT22;58877;51.992;4.504;2023-03-21T00:01:12;10.60;89.72
71177;DHT22;58877;51.992;4.504;2023-03-21T00:03:39;10.68;89.54
71177;DHT22;58877;51.992;4.504;2023-03-21T00:06:08;10.63;89.05
71177;DHT22;58877;51.992;4.504;2023-03-21T00:08:35;10.63;89.75
71177;DHT22;58877;51.992;4.504;2023-03-21T00:11:04;10.67;89.56
71177;DHT22;58877;51.992;4.504;2023-03-21T00:13:31;10.72;89.44
71177;DHT22;58877;51.992;4.504;2023-03-21T00:16:04;10.75;89.27
71177;DHT22;58877;51.992;4.504;2023-03-21T00:18:30;10.77;89.44
71177;DHT22;58877;51.992;4.504;2023-03-21T00:21:01;10.80;89.34
71177;DHT22;58877;51.992;4.504;2023-03-21T00:23:29;10.81;89.25
71177;DHT22;58877;51.992;4.504;2023-03-21T00:25:56;10.72;89.31
71177;DHT22;58877;51.992;4.504;2023-03-21T00:28:22;10.77;89.62
71177;DHT22;58877;51.992;4.504;2023-03-21T00:30:48;10.75;89.73
71177;DHT22;58877;51.992;4.504;2023-03-21T00:33:14;10.72;89.64
71177;DHT22;58877;51.992;4.504;2023-03-21T00:35:41;10.65;89.81
71177;DHT22;58877;51.992;4.504;2023-03-21T00:38:13;10.75;89.83
71177;DHT22;58877;51.992;4.504;2023-03-21T00:40:39;10.67;89.72
71177;DHT22;58877;51.992;4.504;2023-03-21T00:43:05;10.74;89.87
71177;DHT22;58877;51.992;4.504;2023-03-21T00:45:34;10.70;89.81
71177;DHT22;58877;51.992;4.504;2023-03-21T00:47:59;10.75;89.88
71177;DHT22;58877;51.992;4.504;2023-03-21T00:50:25;10.72;89.83
71177;DHT22;58877;51.992;4.504;2023-03-21T00:52:51;10.70;89.97
71177;DHT22;58877;51.992;4.504;2023-03-21T00:55:18;10.71;89.92
71177;DHT22;58877;51.992;4.504;2023-03-21T00:57:44;10.65;90.22
71177;DHT22;58877;51.992;4.504;2023-03-21T01:00:13;10.65;90.14
71177;DHT22;58877;51.992;4.504;2023-03-21T01:02:39;10.65;90.17
71177;DHT22;58877;51.992;4.504;2023-03-21T01:05:38;10.67;90.13
71177;DHT22;58877;51.992;4.504;2023-03-21T01:08:22;10.71;90.06
71177;DHT22;58877;51.992;4.504;2023-03-21T01:10:51;10.74;89.88
71177;DHT22;58877;51.992;4.504;2023-03-21T01:13:19;10.70;89.92
71177;DHT22;58877;51.992;4.504;2023-03-21T01:15:49;10.74;89.55
71177;DHT22;58877;51.992;4.504;2023-03-21T01:18:17;10.80;89.63
71177;DHT22;58877;51.992;4.504;2023-03-21T01:20:43;10.77;89.50
71177;DHT22;58877;51.992;4.504;2023-03-21T01:23:12;10.81;89.31
71177;DHT22;58877;51.992;4.504;2023-03-21T01:25:38;10.80;89.13
71177;DHT22;58877;51.992;4.504;2023-03-21T01:28:05;10.88;88.96
71177;DHT22;58877;51.992;4.504;2023-03-21T01:30:30;10.82;88.81
71177;DHT22;58877;51.992;4.504;2023-03-21T01:32:56;10.88;88.52
71177;DHT22;58877;51.992;4.504;2023-03-21T01:35:22;10.90;88.58
71177;DHT22;58877;51.992;4.504;2023-03-21T01:37:48;10.95;88.27
71177;DHT22;58877;51.992;4.504;2023-03-21T01:40:23;10.95;88.20
71177;DHT22;58877;51.992;4.504;2023-03-21T01:42:50;11.00;87.89
71177;DHT22;58877;51.992;4.504;2023-03-21T01:48:22;10.97;87.73
71177;DHT22;58877;51.992;4.504;2023-03-21T01:50:50;11.07;87.41
71177;DHT22;58877;51.992;4.504;2023-03-21T01:53:19;11.07;87.29
71177;DHT22;58877;51.992;4.504;2023-03-21T01:55:47;11.04;87.33
71177;DHT22;58877;51.992;4.504;2023-03-21T01:58:16;10.98;87.09
71177;DHT22;58877;51.992;4.504;2023-03-21T02:00:49;10.88;87.50
71177;DHT22;58877;51.992;4.504;2023-03-21T02:03:16;11.00;87.73
71177;DHT22;58877;51.992;4.504;2023-03-21T02:08:19;10.98;87.52
71177;DHT22;58877;51.992;4.504;2023-03-21T02:10:47;10.97;87.66
71177;DHT22;58877;51.992;4.504;2023-03-21T02:13:13;11.00;87.75
71177;DHT22;58877;51.992;4.504;2023-03-21T02:15:58;10.97;87.78
71177;DHT22;58877;51.992;4.504;2023-03-21T02:21:27;10.97;87.85
71177;DHT22;58877;51.992;4.504;2023-03-21T02:27:17;10.87;88.03
71177;DHT22;58877;51.992;4.504;2023-03-21T02:32:59;10.85;88.07
71177;DHT22;58877;51.992;4.504;2023-03-21T02:41:15;10.85;88.11
71177;DHT22;58877;51.992;4.504;2023-03-21T02:43:55;10.81;87.88
71177;DHT22;58877;51.992;4.504;2023-03-21T02:46:30;10.87;88.00
71177;DHT22;58877;51.992;4.504;2023-03-21T02:49:25;10.85;87.91
71177;DHT22;58877;51.992;4.504;2023-03-21T02:51:57;10.81;87.89
71177;DHT22;58877;51.992;4.504;2023-03-21T02:54:25;10.82;87.86
71177;DHT22;58877;51.992;4.504;2023-03-21T02:56:56;10.81;87.85
71177;DHT22;58877;51.992;4.504;2023-03-21T02:59:26;10.71;87.93
71177;DHT22;58877;51.992;4.504;2023-03-21T03:01:53;10.70;88.04
71177;DHT22;58877;51.992;4.504;2023-03-21T03:04:21;10.71;87.90
71177;DHT22;58877;51.992;4.504;2023-03-21T03:07:16;10.75;87.85
71177;DHT22;58877;51.992;4.504;2023-03-21T03:10:27;10.77;87.77
71177;DHT22;58877;51.992;4.504;2023-03-21T03:13:02;10.80;87.68
71177;DHT22;58877;51.992;4.504;2023-03-21T03:15:51;10.77;87.53
71177;DHT22;58877;51.992;4.504;2023-03-21T03:24:10;10.85;87.28
71177;DHT22;58877;51.992;4.504;2023-03-21T03:26:56;10.80;86.99
71177;DHT22;58877;51.992;4.504;2023-03-21T03:29:27;10.72;87.18
71177;DHT22;58877;51.992;4.504;2023-03-21T03:32:14;10.67;87.10
71177;DHT22;58877;51.992;4.504;2023-03-21T03:34:47;10.77;87.16
71177;DHT22;58877;51.992;4.504;2023-03-21T03:37:19;10.80;86.84
71177;DHT22;58877;51.992;4.504;2023-03-21T03:42:32;10.74;86.54
71177;DHT22;58877;51.992;4.504;2023-03-21T03:45:00;10.74;86.16
71177;DHT22;58877;51.992;4.504;2023-03-21T03:50:15;10.80;85.81
71177;DHT22;58877;51.992;4.504;2023-03-21T03:52:51;10.80;85.60
71177;DHT22;58877;51.992;4.504;2023-03-21T03:55:21;10.85;85.45
71177;DHT22;58877;51.992;4.504;2023-03-21T03:57:48;10.87;85.32
71177;DHT22;58877;51.992;4.504;2023-03-21T04:00:15;10.94;85.00
71177;DHT22;58877;51.992;4.504;2023-03-21T04:02:41;10.92;85.02
71177;DHT22;58877;51.992;4.504;2023-03-21T04:05:08;10.90;84.97
71177;DHT22;58877;51.992;4.504;2023-03-21T04:07:34;11.00;84.74
71177;DHT22;58877;51.992;4.504;2023-03-21T04:09:59;11.01;84.71
71177;DHT22;58877;51.992;4.504;2023-03-21T04:12:25;11.00;84.73
71177;DHT22;58877;51.992;4.504;2023-03-21T04:14:51;10.91;85.03
71177;DHT22;58877;51.992;4.504;2023-03-21T04:17:17;10.95;84.95
71177;DHT22;58877;51.992;4.504;2023-03-21T04:19:46;10.92;85.01
71177;DHT22;58877;51.992;4.504;2023-03-21T04:22:12;10.88;85.12
71177;DHT22;58877;51.992;4.504;2023-03-21T04:24:38;10.91;85.26
71177;DHT22;58877;51.992;4.504;2023-03-21T04:27:05;11.01;85.13
71177;DHT22;58877;51.992;4.504;2023-03-21T04:29:31;10.94;84.97
71177;DHT22;58877;51.992;4.504;2023-03-21T04:31:57;10.97;85.07
71177;DHT22;58877;51.992;4.504;2023-03-21T04:34:23;11.04;84.86
71177;DHT22;58877;51.992;4.504;2023-03-21T04:36:55;11.05;84.59
71177;DHT22;58877;51.992;4.504;2023-03-21T04:39:22;11.07;84.63
71177;DHT22;58877;51.992;4.504;2023-03-21T04:41:51;11.07;84.48
71177;DHT22;58877;51.992;4.504;2023-03-21T04:44:17;11.11;84.37
71177;DHT22;58877;51.992;4.504;2023-03-21T04:46:43;11.05;84.02
71177;DHT22;58877;51.992;4.504;2023-03-21T04:49:09;11.10;84.13
71177;DHT22;58877;51.992;4.504;2023-03-21T04:51:35;11.14;83.86
71177;DHT22;58877;51.992;4.504;2023-03-21T04:54:01;11.08;83.97
71177;DHT22;58877;51.992;4.504;2023-03-21T04:56:28;11.14;83.97
71177;DHT22;58877;51.992;4.504;2023-03-21T04:59:08;11.18;83.94
71177;DHT22;58877;51.992;4.504;2023-03-21T05:01:34;11.22;83.74
71177;DHT22;58877;51.992;4.504;2023-03-21T05:04:01;11.16;83.59
71177;DHT22;58877;51.992;4.504;2023-03-21T05:06:27;11.16;83.50
71177;DHT22;58877;51.992;4.504;2023-03-21T05:08:57;11.18;83.45
71177;DHT22;58877;51.992;4.504;2023-03-21T05:11:35;11.15;83.33
71177;DHT22;58877;51.992;4.504;2023-03-21T05:14:07;11.18;83.41
71177;DHT22;58877;51.992;4.504;2023-03-21T05:16:33;11.21;83.44
71177;DHT22;58877;51.992;4.504;2023-03-21T05:19:01;11.16;83.45
71177;DHT22;58877;51.992;4.504;2023-03-21T05:21:31;11.21;83.35
71177;DHT22;58877;51.992;4.504;2023-03-21T05:24:08;11.22;83.12
71177;DHT22;58877;51.992;4.504;2023-03-21T05:26:38;11.21;83.18
71177;DHT22;58877;51.992;4.504;2023-03-21T05:29:04;11.21;83.12
71177;DHT22;58877;51.992;4.504;2023-03-21T05:31:29;11.19;83.08
71177;DHT22;58877;51.992;4.504;2023-03-21T05:33:55;11.15;83.00
71177;DHT22;58877;51.992;4.504;2023-03-21T05:36:21;11.11;83.22
71177;DHT22;58877;51.992;4.504;2023-03-21T05:38:46;11.15;83.14
71177;DHT22;58877;51.992;4.504;2023-03-21T05:41:14;11.07;83.06
71177;DHT22;58877;51.992;4.504;2023-03-21T05:43:40;11.07;83.18
71177;DHT22;58877;51.992;4.504;2023-03-21T05:46:06;11.10;83.02
71177;DHT22;58877;51.992;4.504;2023-03-21T05:48:32;11.10;82.72
71177;DHT22;58877;51.992;4.504;2023-03-21T05:50:59;11.08;82.86
71177;DHT22;58877;51.992;4.504;2023-03-21T05:53:26;11.10;82.94
71177;DHT22;58877;51.992;4.504;2023-03-21T05:55:51;11.07;82.84
71177;DHT22;58877;51.992;4.504;2023-03-21T05:58:18;11.11;82.88
71177;DHT22;58877;51.992;4.504;2023-03-21T06:00:43;11.12;82.99
71177;DHT22;58877;51.992;4.504;2023-03-21T06:03:09;11.10;83.10
71177;DHT22;58877;51.992;4.504;2023-03-21T06:05:35;11.15;83.11
71177;DHT22;58877;51.992;4.504;2023-03-21T06:08:01;11.08;83.17
71177;DHT22;58877;51.992;4.504;2023-03-21T06:10:26;11.04;83.35
71177;DHT22;58877;51.992;4.504;2023-03-21T06:12:52;11.02;83.59
71177;DHT22;58877;51.992;4.504;2023-03-21T06:15:17;10.97;84.01
71177;DHT22;58877;51.992;4.504;2023-03-21T06:17:43;10.98;83.86
71177;DHT22;58877;51.992;4.504;2023-03-21T06:20:09;10.91;84.07
71177;DHT22;58877;51.992;4.504;2023-03-21T06:22:36;10.91;84.32
71177;DHT22;58877;51.992;4.504;2023-03-21T06:25:03;10.97;84.37
71177;DHT22;58877;51.992;4.504;2023-03-21T06:27:29;11.04;84.29
71177;DHT22;58877;51.992;4.504;2023-03-21T06:29:55;11.05;84.16
71177;DHT22;58877;51.992;4.504;2023-03-21T06:32:25;11.10;84.08
71177;DHT22;58877;51.992;4.504;2023-03-21T06:34:51;11.10;84.14
71177;DHT22;58877;51.992;4.504;2023-03-21T06:37:17;11.08;84.25
71177;DHT22;58877;51.992;4.504;2023-03-21T06:39:43;11.11;84.37
71177;DHT22;58877;51.992;4.504;2023-03-21T06:42:09;11.08;84.43
71177;DHT22;58877;51.992;4.504;2023-03-21T06:44:35;11.04;84.60
71177;DHT22;58877;51.992;4.504;2023-03-21T06:47:01;11.01;84.74
71177;DHT22;58877;51.992;4.504;2023-03-21T06:49:26;10.98;84.89
71177;DHT22;58877;51.992;4.504;2023-03-21T06:51:52;11.01;85.06
71177;DHT22;58877;51.992;4.504;2023-03-21T06:54:18;10.98;85.13
71177;DHT22;58877;51.992;4.504;2023-03-21T06:56:44;10.90;85.29
71177;DHT22;58877;51.992;4.504;2023-03-21T06:59:10;10.91;85.37
71177;DHT22;58877;51.992;4.504;2023-03-21T07:01:36;10.95;85.47
71177;DHT22;58877;51.992;4.504;2023-03-21T07:04:01;11.00;85.39
71177;DHT22;58877;51.992;4.504;2023-03-21T07:06:29;10.98;85.27
71177;DHT22;58877;51.992;4.504;2023-03-21T07:08:55;10.95;85.52
71177;DHT22;58877;51.992;4.504;2023-03-21T07:11:22;10.94;85.66
71177;DHT22;58877;51.992;4.504;2023-03-21T07:13:48;10.97;85.66
71177;DHT22;58877;51.992;4.504;2023-03-21T07:16:15;10.95;85.70
71177;DHT22;58877;51.992;4.504;2023-03-21T07:18:42;11.02;85.70
71177;DHT22;58877;51.992;4.504;2023-03-21T07:21:09;11.08;85.53
71177;DHT22;58877;51.992;4.504;2023-03-21T07:23:35;11.12;85.51
71177;DHT22;58877;51.992;4.504;2023-03-21T07:26:03;11.16;85.44
71177;DHT22;58877;51.992;4.504;2023-03-21T07:28:29;11.16;85.40
71177;DHT22;58877;51.992;4.504;2023-03-21T07:30:59;11.21;85.32
71177;DHT22;58877;51.992;4.504;2023-03-21T07:33:25;11.15;85.50
71177;DHT22;58877;51.992;4.504;2023-03-21T07:35:53;11.25;85.49
71177;DHT22;58877;51.992;4.504;2023-03-21T07:38:19;11.25;85.22
71177;DHT22;58877;51.992;4.504;2023-03-21T07:40:46;11.29;85.26
71177;DHT22;58877;51.992;4.504;2023-03-21T07:43:13;11.29;85.10
71177;DHT22;58877;51.992;4.504;2023-03-21T07:45:39;11.22;85.16
71177;DHT22;58877;51.992;4.504;2023-03-21T07:48:05;11.18;85.42
71177;DHT22;58877;51.992;4.504;2023-03-21T07:50:31;11.24;85.41
71177;DHT22;58877;51.992;4.504;2023-03-21T07:52:57;11.26;85.32
71177;DHT22;58877;51.992;4.504;2023-03-21T07:55:22;11.29;85.32
71177;DHT22;58877;51.992;4.504;2023-03-21T07:57:49;11.34;85.24
71177;DHT22;58877;51.992;4.504;2023-03-21T08:00:17;11.39;85.37
71177;DHT22;58877;51.992;4.504;2023-03-21T08:02:55;11.48;85.21
71177;DHT22;58877;51.992;4.504;2023-03-21T08:05:29;11.46;84.96
71177;DHT22;58877;51.992;4.504;2023-03-21T08:07:55;11.54;85.12
71177;DHT22;58877;51.992;4.504;2023-03-21T08:10:21;11.69;84.70
71177;DHT22;58877;51.992;4.504;2023-03-21T08:12:47;11.73;84.52
71177;DHT22;58877;51.992;4.504;2023-03-21T08:15:14;11.79;84.32
71177;DHT22;58877;51.992;4.504;2023-03-21T08:17:40;11.85;84.00
71177;DHT22;58877;51.992;4.504;2023-03-21T08:20:12;11.86;83.84
71177;DHT22;58877;51.992;4.504;2023-03-21T08:22:38;11.86;83.77
71177;DHT22;58877;51.992;4.504;2023-03-21T08:25:06;11.87;83.59
71177;DHT22;58877;51.992;4.504;2023-03-21T08:27:33;11.82;83.54
71177;DHT22;58877;51.992;4.504;2023-03-21T08:30:00;11.96;83.56
71177;DHT22;58877;51.992;4.504;2023-03-21T08:32:27;12.01;82.95
71177;DHT22;58877;51.992;4.504;2023-03-21T08:34:57;12.10;81.54
71177;DHT22;58877;51.992;4.504;2023-03-21T08:37:23;12.07;80.93
71177;DHT22;58877;51.992;4.504;2023-03-21T08:39:49;12.14;81.12
71177;DHT22;58877;51.992;4.504;2023-03-21T08:42:15;12.20;81.04
71177;DHT22;58877;51.992;4.504;2023-03-21T08:44:41;12.34;80.78
71177;DHT22;58877;51.992;4.504;2023-03-21T08:47:06;12.33;80.42
71177;DHT22;58877;51.992;4.504;2023-03-21T08:49:34;12.41;80.26
71177;DHT22;58877;51.992;4.504;2023-03-21T08:52:00;12.40;79.73
71177;DHT22;58877;51.992;4.504;2023-03-21T08:54:25;12.44;79.63
71177;DHT22;58877;51.992;4.504;2023-03-21T08:56:51;12.54;79.99
71177;DHT22;58877;51.992;4.504;2023-03-21T08:59:17;12.54;79.41
71177;DHT22;58877;51.992;4.504;2023-03-21T09:01:42;12.67;79.32
71177;DHT22;58877;51.992;4.504;2023-03-21T09:04:08;12.73;78.49
71177;DHT22;58877;51.992;4.504;2023-03-21T09:06:39;12.64;78.73
71177;DHT22;58877;51.992;4.504;2023-03-21T09:09:10;12.71;79.02
71177;DHT22;58877;51.992;4.504;2023-03-21T09:11:37;12.95;78.78
71177;DHT22;58877;51.992;4.504;2023-03-21T09:14:03;12.92;78.69
71177;DHT22;58877;51.992;4.504;2023-03-21T09:16:29;13.04;78.76
71177;DHT22;58877;51.992;4.504;2023-03-21T09:18:56;13.20;78.54
71177;DHT22;58877;51.992;4.504;2023-03-21T09:21:25;13.09;78.44
71177;DHT22;58877;51.992;4.504;2023-03-21T09:23:53;13.04;78.12
71177;DHT22;58877;51.992;4.504;2023-03-21T09:26:22;13.01;78.59
71177;DHT22;58877;51.992;4.504;2023-03-21T09:28:49;13.12;78.10
71177;DHT22;58877;51.992;4.504;2023-03-21T09:31:16;13.23;78.06
71177;DHT22;58877;51.992;4.504;2023-03-21T09:33:51;13.30;77.77
71177;DHT22;58877;51.992;4.504;2023-03-21T09:36:18;13.43;77.83
71177;DHT22;58877;51.992;4.504;2023-03-21T09:38:47;13.49;77.70
71177;DHT22;58877;51.992;4.504;2023-03-21T09:50:15;13.34;77.29
71177;DHT22;58877;51.992;4.504;2023-03-21T09:55:22;13.36;78.10
71177;DHT22;58877;51.992;4.504;2023-03-21T10:00:33;13.60;77.43
71177;DHT22;58877;51.992;4.504;2023-03-21T10:03:04;13.59;76.66
71177;DHT22;58877;51.992;4.504;2023-03-21T10:05:32;13.59;76.62
71177;DHT22;58877;51.992;4.504;2023-03-21T10:08:12;13.49;76.40
71177;DHT22;58877;51.992;4.504;2023-03-21T10:10:50;13.58;76.34
71177;DHT22;58877;51.992;4.504;2023-03-21T10:13:28;13.60;76.19
71177;DHT22;58877;51.992;4.504;2023-03-21T10:16:01;13.63;75.25
71177;DHT22;58877;51.992;4.504;2023-03-21T10:18:31;13.32;76.30
71177;DHT22;58877;51.992;4.504;2023-03-21T10:20:58;13.49;76.38
71177;DHT22;58877;51.992;4.504;2023-03-21T10:23:28;13.35;75.87
71177;DHT22;58877;51.992;4.504;2023-03-21T10:25:58;13.30;75.93
71177;DHT22;58877;51.992;4.504;2023-03-21T10:28:29;13.28;75.77
71177;DHT22;58877;51.992;4.504;2023-03-21T10:31:01;13.16;75.96
71177;DHT22;58877;51.992;4.504;2023-03-21T10:33:37;13.23;76.21
71177;DHT22;58877;51.992;4.504;2023-03-21T10:36:12;13.34;76.32
71177;DHT22;58877;51.992;4.504;2023-03-21T10:38:44;13.36;76.51
71177;DHT22;58877;51.992;4.504;2023-03-21T10:41:11;13.36;76.17
71177;DHT22;58877;51.992;4.504;2023-03-21T10:43:38;12.95;76.50
71177;DHT22;58877;51.992;4.504;2023-03-21T10:46:08;12.89;77.43
71177;DHT22;58877;51.992;4.504;2023-03-21T10:48:37;12.80;77.41
71177;DHT22;58877;51.992;4.504;2023-03-21T10:51:07;12.85;77.37
71177;DHT22;58877;51.992;4.504;2023-03-21T10:53:57;12.94;77.25
71177;DHT22;58877;51.992;4.504;2023-03-21T10:56:34;13.06;77.56
71177;DHT22;58877;51.992;4.504;2023-03-21T10:59:01;13.18;77.15
71177;DHT22;58877;51.992;4.504;2023-03-21T11:01:34;13.35;77.01
71177;DHT22;58877;51.992;4.504;2023-03-21T11:04:21;13.35;76.01
71177;DHT22;58877;51.992;4.504;2023-03-21T11:07:01;13.26;76.01
71177;DHT22;58877;51.992;4.504;2023-03-21T11:09:44;13.38;76.53
71177;DHT22;58877;51.992;4.504;2023-03-21T11:12:16;13.71;76.15
71177;DHT22;58877;51.992;4.504;2023-03-21T11:14:48;13.67;75.58
71177;DHT22;58877;51.992;4.504;2023-03-21T11:20:05;13.70;74.95
71177;DHT22;58877;51.992;4.504;2023-03-21T11:22:42;13.59;75.07
71177;DHT22;58877;51.992;4.504;2023-03-21T11:27:58;13.65;74.17
71177;DHT22;58877;51.992;4.504;2023-03-21T11:30:30;13.46;74.85
71177;DHT22;58877;51.992;4.504;2023-03-21T11:33:01;13.67;74.98
71177;DHT22;58877;51.992;4.504;2023-03-21T11:35:37;13.73;75.00
71177;DHT22;58877;51.992;4.504;2023-03-21T11:38:04;13.60;74.10
71177;DHT22;58877;51.992;4.504;2023-03-21T11:40:34;13.46;73.08
71177;DHT22;58877;51.992;4.504;2023-03-21T11:43:03;13.22;73.92
71177;DHT22;58877;51.992;4.504;2023-03-21T11:45:33;13.14;73.76
71177;DHT22;58877;51.992;4.504;2023-03-21T11:48:09;13.16;73.16
71177;DHT22;58877;51.992;4.504;2023-03-21T11:50:43;13.11;72.09
71177;DHT22;58877;51.992;4.504;2023-03-21T12:04:47;14.03;71.19
71177;DHT22;58877;51.992;4.504;2023-03-21T12:20:59;13.94;70.59
71177;DHT22;58877;51.992;4.504;2023-03-21T12:26:25;13.67;71.36
71177;DHT22;58877;51.992;4.504;2023-03-21T12:29:12;13.45;71.89
71177;DHT22;58877;51.992;4.504;2023-03-21T12:37:30;13.74;71.98
71177;DHT22;58877;51.992;4.504;2023-03-21T12:40:21;13.79;71.39
71177;DHT22;58877;51.992;4.504;2023-03-21T12:42:59;13.83;71.32
71177;DHT22;58877;51.992;4.504;2023-03-21T12:45:36;13.83;71.84
71177;DHT22;58877;51.992;4.504;2023-03-21T12:48:35;14.06;71.48
71177;DHT22;58877;51.992;4.504;2023-03-21T12:51:07;14.07;70.75
71177;DHT22;58877;51.992;4.504;2023-03-21T12:54:22;14.00;70.43
71177;DHT22;58877;51.992;4.504;2023-03-21T12:59:32;14.18;69.95
71177;DHT22;58877;51.992;4.504;2023-03-21T13:02:19;14.07;70.38
71177;DHT22;58877;51.992;4.504;2023-03-21T13:07:34;13.89;70.67
71177;DHT22;58877;51.992;4.504;2023-03-21T13:10:15;14.03;70.55
71177;DHT22;58877;51.992;4.504;2023-03-21T13:20:54;14.34;70.17
71177;DHT22;58877;51.992;4.504;2023-03-21T13:23:23;14.27;69.93
71177;DHT22;58877;51.992;4.504;2023-03-21T13:25:51;14.14;70.00
71177;DHT22;58877;51.992;4.504;2023-03-21T13:28:26;14.11;71.05
71177;DHT22;58877;51.992;4.504;2023-03-21T13:31:25;14.07;70.44
71177;DHT22;58877;51.992;4.504;2023-03-21T13:33:55;13.97;70.99
71177;DHT22;58877;51.992;4.504;2023-03-21T13:36:34;13.89;70.82
71177;DHT22;58877;51.992;4.504;2023-03-21T13:39:04;13.73;71.43
71177;DHT22;58877;51.992;4.504;2023-03-21T13:41:35;13.71;71.76
71177;DHT22;58877;51.992;4.504;2023-03-21T13:54:21;13.74;72.34
71177;DHT22;58877;51.992;4.504;2023-03-21T13:57:21;13.81;72.39
71177;DHT22;58877;51.992;4.504;2023-03-21T13:59:47;13.89;72.42
71177;DHT22;58877;51.992;4.504;2023-03-21T14:02:32;13.90;72.69
71177;DHT22;58877;51.992;4.504;2023-03-21T14:05:05;13.94;73.08
71177;DHT22;58877;51.992;4.504;2023-03-21T14:07:35;13.86;73.23
71177;DHT22;58877;51.992;4.504;2023-03-21T14:10:16;13.71;74.06
71177;DHT22;58877;51.992;4.504;2023-03-21T14:12:43;13.59;74.91
71177;DHT22;58877;51.992;4.504;2023-03-21T14:15:20;13.40;75.67
71177;DHT22;58877;51.992;4.504;2023-03-21T14:17:52;13.49;75.43
71177;DHT22;58877;51.992;4.504;2023-03-21T14:20:24;13.43;75.79
71177;DHT22;58877;51.992;4.504;2023-03-21T14:22:51;13.25;75.80
71177;DHT22;58877;51.992;4.504;2023-03-21T14:25:20;13.35;76.27
71177;DHT22;58877;51.992;4.504;2023-03-21T14:27:54;13.30;76.48
71177;DHT22;58877;51.992;4.504;2023-03-21T14:30:32;13.45;76.17
71177;DHT22;58877;51.992;4.504;2023-03-21T14:33:07;13.38;76.23
71177;DHT22;58877;51.992;4.504;2023-03-21T14:35:40;13.36;76.22
71177;DHT22;58877;51.992;4.504;2023-03-21T14:38:08;13.39;76.15
71177;DHT22;58877;51.992;4.504;2023-03-21T14:40:48;13.43;76.09
71177;DHT22;58877;51.992;4.504;2023-03-21T14:43:14;13.39;76.13
71177;DHT22;58877;51.992;4.504;2023-03-21T14:45:47;13.22;76.83
71177;DHT22;58877;51.992;4.504;2023-03-21T14:48:15;13.28;77.11
71177;DHT22;58877;51.992;4.504;2023-03-21T14:50:50;13.29;77.25
71177;DHT22;58877;51.992;4.504;2023-03-21T14:53:27;13.16;77.83
71177;DHT22;58877;51.992;4.504;2023-03-21T14:56:06;13.04;78.09
71177;DHT22;58877;51.992;4.504;2023-03-21T14:58:33;12.99;78.43
71177;DHT22;58877;51.992;4.504;2023-03-21T15:01:05;13.02;78.31
71177;DHT22;58877;51.992;4.504;2023-03-21T15:03:33;12.95;78.58
71177;DHT22;58877;51.992;4.504;2023-03-21T15:06:00;12.91;79.23
71177;DHT22;58877;51.992;4.504;2023-03-21T15:08:27;12.96;79.13
71177;DHT22;58877;51.992;4.504;2023-03-21T15:11:03;13.05;78.90
71177;DHT22;58877;51.992;4.504;2023-03-21T15:13:51;12.83;79.85
71177;DHT22;58877;51.992;4.504;2023-03-21T15:16:20;12.73;80.59
71177;DHT22;58877;51.992;4.504;2023-03-21T15:18:47;12.74;81.41
71177;DHT22;58877;51.992;4.504;2023-03-21T15:21:15;12.69;82.29
71177;DHT22;58877;51.992;4.504;2023-03-21T15:23:45;12.74;82.40
71177;DHT22;58877;51.992;4.504;2023-03-21T15:26:15;12.88;81.90
71177;DHT22;58877;51.992;4.504;2023-03-21T15:28:44;13.15;81.01
71177;DHT22;58877;51.992;4.504;2023-03-21T15:31:34;13.56;79.11
71177;DHT22;58877;51.992;4.504;2023-03-21T15:34:02;13.63;78.29
71177;DHT22;58877;51.992;4.504;2023-03-21T15:36:33;13.74;77.92
71177;DHT22;58877;51.992;4.504;2023-03-21T15:39:01;13.83;77.39
71177;DHT22;58877;51.992;4.504;2023-03-21T15:41:31;13.86;75.92
71177;DHT22;58877;51.992;4.504;2023-03-21T15:46:41;14.00;76.71
71177;DHT22;58877;51.992;4.504;2023-03-21T15:54:14;14.03;75.84
71177;DHT22;58877;51.992;4.504;2023-03-21T15:56:41;13.97;75.79
71177;DHT22;58877;51.992;4.504;2023-03-21T15:59:15;13.84;76.08
71177;DHT22;58877;51.992;4.504;2023-03-21T16:01:46;13.89;76.12
71177;DHT22;58877;51.992;4.504;2023-03-21T16:04:13;13.79;76.15
71177;DHT22;58877;51.992;4.504;2023-03-21T16:06:52;13.91;76.12
71177;DHT22;58877;51.992;4.504;2023-03-21T16:09:18;13.90;76.13
71177;DHT22;58877;51.992;4.504;2023-03-21T16:11:55;13.87;76.37
71177;DHT22;58877;51.992;4.504;2023-03-21T16:14:23;13.77;76.02
71177;DHT22;58877;51.992;4.504;2023-03-21T16:16:51;13.66;76.70
71177;DHT22;58877;51.992;4.504;2023-03-21T16:19:17;13.81;76.53
71177;DHT22;58877;51.992;4.504;2023-03-21T16:21:43;14.76;74.84
71177;DHT22;58877;51.992;4.504;2023-03-21T16:24:09;15.06;72.78
71177;DHT22;58877;51.992;4.504;2023-03-21T16:26:41;14.85;72.92
71177;DHT22;58877;51.992;4.504;2023-03-21T16:29:12;14.20;75.27
71177;DHT22;58877;51.992;4.504;2023-03-21T16:31:39;13.93;75.97
71177;DHT22;58877;51.992;4.504;2023-03-21T16:34:04;13.74;76.17
71177;DHT22;58877;51.992;4.504;2023-03-21T16:36:34;13.67;77.00
71177;DHT22;58877;51.992;4.504;2023-03-21T16:39:18;13.71;76.90
71177;DHT22;58877;51.992;4.504;2023-03-21T16:41:46;13.59;76.97
71177;DHT22;58877;51.992;4.504;2023-03-21T16:44:12;13.67;77.03
71177;DHT22;58877;51.992;4.504;2023-03-21T16:46:37;13.63;77.14
71177;DHT22;58877;51.992;4.504;2023-03-21T16:49:03;14.07;76.33
71177;DHT22;58877;51.992;4.504;2023-03-21T16:51:32;13.89;76.09
71177;DHT22;58877;51.992;4.504;2023-03-21T16:53:59;13.34;76.43
71177;DHT22;58877;51.992;4.504;2023-03-21T16:56:29;12.89;77.38
71177;DHT22;58877;51.992;4.504;2023-03-21T16:58:56;12.77;77.30
71177;DHT22;58877;51.992;4.504;2023-03-21T17:01:23;12.68;77.34
71177;DHT22;58877;51.992;4.504;2023-03-21T17:03:55;12.69;77.40
71177;DHT22;58877;51.992;4.504;2023-03-21T17:06:25;12.78;76.74
71177;DHT22;58877;51.992;4.504;2023-03-21T17:08:52;13.18;75.59
71177;DHT22;58877;51.992;4.504;2023-03-21T17:11:21;13.22;75.45
71177;DHT22;58877;51.992;4.504;2023-03-21T17:13:52;13.02;75.37
71177;DHT22;58877;51.992;4.504;2023-03-21T17:16:22;12.78;76.10
71177;DHT22;58877;51.992;4.504;2023-03-21T17:18:49;12.81;75.93
71177;DHT22;58877;51.992;4.504;2023-03-21T17:21:22;12.80;75.71
71177;DHT22;58877;51.992;4.504;2023-03-21T17:23:48;12.74;75.75
71177;DHT22;58877;51.992;4.504;2023-03-21T17:26:22;12.89;75.62
71177;DHT22;58877;51.992;4.504;2023-03-21T17:28:48;12.80;75.71
71177;DHT22;58877;51.992;4.504;2023-03-21T17:31:17;12.85;75.48
71177;DHT22;58877;51.992;4.504;2023-03-21T17:33:44;12.74;75.38
71177;DHT22;58877;51.992;4.504;2023-03-21T17:36:19;12.85;75.23
71177;DHT22;58877;51.992;4.504;2023-03-21T17:38:45;12.80;74.77
71177;DHT22;58877;51.992;4.504;2023-03-21T17:41:16;12.64;75.01
71177;DHT22;58877;51.992;4.504;2023-03-21T17:43:42;12.54;75.30
71177;DHT22;58877;51.992;4.504;2023-03-21T17:46:17;12.50;75.32